LNG Rivers — ZCDE3 — position and weather

sailwx.info

Track history (hours):
 
Tides and Currents Weather Stations Pressure Air Temp Water Temp Dewpoint Dewpoint Depression Visibility Wind Speed Wind Dir Waves Ship Positions

LNG Rivers

Last reported at 2018-Feb-16 09:29 UTC. Time now 2018-Feb-18 20:25 UTC.
Position N 28°07' W 016°15'.

Length 288.7 m; beam 48.1 m; draft 11.1 m.

Type: Ship (hazmat cat B). MMSI: 310370000.

Date/timePositionNaut miles runAvg speedWind from/ knotsBaromVisibWave heightAir tempDewpointWater temp
2018-Feb-16 09:29N 28°07' W 016°15'918.3
2018-Feb-16 09:00N 28°13' W 016°09'917.3
2018-Feb-16 08:30N 28°20' W 016°03'713.7
2018-Feb-16 08:00N 28°26' W 016°07'2 3.1
2018-Feb-16 07:30N 28°28' W 016°07'3 6.8
2018-Feb-16 07:01N 28°28' W 016°03'510.7
2018-Feb-16 06:30N 28°29' W 015°57'5 9.7
2018-Feb-16 06:00N 28°31' W 015°52'815.6
2018-Feb-16 05:30N 28°37' W 015°46'815.3
2018-Feb-16 05:00N 28°44' W 015°42'815.5
2018-Feb-16 04:30N 28°51' W 015°40'814.9
2018-Feb-16 03:58N 28°59' W 015°38'714.3
2018-Feb-16 03:31N 28°56' W 015°31'713.4
2018-Feb-16 03:01N 28°58' W 015°24'816.1
2018-Feb-16 02:30N 29°04' W 015°18'815.6
2018-Feb-16 02:00N 29°10' W 015°12'815.7
2018-Feb-16 01:30N 29°16' W 015°06'4615.6
2018-Feb-15 22:34N 29°50' W 014°30'615.4
2018-Feb-15 22:09N 29°54' W 014°25'215.5
2018-Feb-15 22:00N 29°56' W 014°24'815.3
2018-Feb-15 21:28N 30°03' W 014°18'816.1
2018-Feb-15 20:59N 30°09' W 014°12'2415.8
2018-Feb-15 19:30N 30°26' W 013°53'815.7
2018-Feb-15 19:00N 30°31' W 013°47'1015.7
2018-Feb-15 18:21N 30°39' W 013°39'515.8
2018-Feb-15 18:00N 30°43' W 013°35'815.9
2018-Feb-15 17:30N 30°49' W 013°28'916.2
2018-Feb-15 16:58N 30°55' W 013°21'816.0
2018-Feb-15 16:30N 31°00' W 013°15'  
2018-Feb-11 13:47N 30°45' W 012°38'311.1
2018-Feb-11 13:31N 30°43' W 012°40'611.0
2018-Feb-11 13:01N 30°38' W 012°44'611.2
2018-Feb-11 12:31N 30°34' W 012°48'611.2
2018-Feb-11 12:00N 30°30' W 012°53'611.2
2018-Feb-11 11:31N 30°25' W 012°57'611.2
2018-Feb-11 11:01N 30°21' W 013°01'13811.6
2018-Feb-10 23:11N 28°33' W 014°39'212.7
2018-Feb-10 22:59N 28°31' W 014°41'612.6
2018-Feb-10 22:30N 28°26' W 014°45'612.7
2018-Feb-10 22:00N 28°21' W 014°48'713.0
2018-Feb-10 21:29N 28°15' W 014°51'613.0
2018-Feb-10 21:00N 28°08' W 014°52'611.8
2018-Feb-10 20:29N 28°03' W 014°56'613.0
2018-Feb-10 20:00N 27°57' W 014°59'713.2
2018-Feb-10 19:30N 27°51' W 015°01'613.2
2018-Feb-10 19:00N 27°45' W 015°04'713.1
2018-Feb-10 18:29N 27°39' W 015°08'  
2018-Feb-07 01:44N 07°32' W 016°27'417.2
2018-Feb-07 01:30N 07°29' W 016°25'10417.0
2018-Feb-06 19:23N 06°03' W 015°25'617.0
2018-Feb-06 19:00N 05°60' W 015°19'917.0
2018-Feb-06 18:28N 05°55' W 015°11'816.8
2018-Feb-06 17:59N 05°52' W 015°04'  
Track history (hours):
 
Tides and Currents Weather Stations Pressure Air Temp Water Temp Dewpoint Dewpoint Depression Visibility Wind Speed Wind Dir Waves Ship Positions

LNG Rivers

Last reported at 2018-Feb-16 09:29 UTC. Time now 2018-Feb-18 20:25 UTC.
Position N 28°07' W 016°15'.

Length 288.7 m; beam 48.1 m; draft 11.1 m.

Type: Ship (hazmat cat B). MMSI: 310370000.

Date/timePositionNaut miles runAvg speedWind from/ knotsBaromVisibWave heightAir tempDewpointWater temp
2018-Feb-16 09:29N 28°07' W 016°15'918.3
2018-Feb-16 09:00N 28°13' W 016°09'917.3
2018-Feb-16 08:30N 28°20' W 016°03'713.7
2018-Feb-16 08:00N 28°26' W 016°07'2 3.1
2018-Feb-16 07:30N 28°28' W 016°07'3 6.8
2018-Feb-16 07:01N 28°28' W 016°03'510.7
2018-Feb-16 06:30N 28°29' W 015°57'5 9.7
2018-Feb-16 06:00N 28°31' W 015°52'815.6
2018-Feb-16 05:30N 28°37' W 015°46'815.3
2018-Feb-16 05:00N 28°44' W 015°42'815.5
2018-Feb-16 04:30N 28°51' W 015°40'814.9
2018-Feb-16 03:58N 28°59' W 015°38'714.3
2018-Feb-16 03:31N 28°56' W 015°31'713.4
2018-Feb-16 03:01N 28°58' W 015°24'816.1
2018-Feb-16 02:30N 29°04' W 015°18'815.6
2018-Feb-16 02:00N 29°10' W 015°12'815.7
2018-Feb-16 01:30N 29°16' W 015°06'4615.6
2018-Feb-15 22:34N 29°50' W 014°30'615.4
2018-Feb-15 22:09N 29°54' W 014°25'215.5
2018-Feb-15 22:00N 29°56' W 014°24'815.3
2018-Feb-15 21:28N 30°03' W 014°18'816.1
2018-Feb-15 20:59N 30°09' W 014°12'2415.8
2018-Feb-15 19:30N 30°26' W 013°53'815.7
2018-Feb-15 19:00N 30°31' W 013°47'1015.7
2018-Feb-15 18:21N 30°39' W 013°39'515.8
2018-Feb-15 18:00N 30°43' W 013°35'815.9
2018-Feb-15 17:30N 30°49' W 013°28'916.2
2018-Feb-15 16:58N 30°55' W 013°21'816.0
2018-Feb-15 16:30N 31°00' W 013°15'  
2018-Feb-11 13:47N 30°45' W 012°38'311.1
2018-Feb-11 13:31N 30°43' W 012°40'611.0
2018-Feb-11 13:01N 30°38' W 012°44'611.2
2018-Feb-11 12:31N 30°34' W 012°48'611.2
2018-Feb-11 12:00N 30°30' W 012°53'611.2
2018-Feb-11 11:31N 30°25' W 012°57'611.2
2018-Feb-11 11:01N 30°21' W 013°01'13811.6
2018-Feb-10 23:11N 28°33' W 014°39'212.7
2018-Feb-10 22:59N 28°31' W 014°41'612.6
2018-Feb-10 22:30N 28°26' W 014°45'612.7
2018-Feb-10 22:00N 28°21' W 014°48'713.0
2018-Feb-10 21:29N 28°15' W 014°51'613.0
2018-Feb-10 21:00N 28°08' W 014°52'611.8
2018-Feb-10 20:29N 28°03' W 014°56'613.0
2018-Feb-10 20:00N 27°57' W 014°59'713.2
2018-Feb-10 19:30N 27°51' W 015°01'613.2
2018-Feb-10 19:00N 27°45' W 015°04'713.1
2018-Feb-10 18:29N 27°39' W 015°08'  
2018-Feb-07 01:44N 07°32' W 016°27'417.2
2018-Feb-07 01:30N 07°29' W 016°25'10417.0
2018-Feb-06 19:23N 06°03' W 015°25'617.0
2018-Feb-06 19:00N 05°60' W 015°19'917.0
2018-Feb-06 18:28N 05°55' W 015°11'816.8
2018-Feb-06 17:59N 05°52' W 015°04'  

Dump ship's entire track history